createdAt,value
2023-03-24T00:01:11.845Z,54.50
2023-03-24T00:03:39.056Z,54.70
2023-03-24T00:06:07.164Z,54.60
2023-03-24T00:08:36.636Z,54.70
2023-03-24T00:11:07.545Z,54.70
2023-03-24T00:13:35.927Z,54.60
2023-03-24T00:16:05.856Z,54.50
2023-03-24T00:18:33.052Z,55.10
2023-03-24T00:21:01.512Z,54.30
2023-03-24T00:23:29.973Z,54.50
2023-03-24T00:26:08.867Z,54.20
2023-03-24T00:28:37.499Z,54.50
2023-03-24T00:31:07.413Z,54.30
2023-03-24T00:33:34.289Z,54.10
2023-03-24T00:36:01.941Z,54.20
2023-03-24T00:38:29.641Z,54.20
2023-03-24T00:40:57.047Z,54.30
2023-03-24T00:43:24.312Z,54.30
2023-03-24T00:45:57.791Z,54.50
2023-03-24T00:48:29.072Z,54.30
2023-03-24T00:50:57.593Z,54.40
2023-03-24T00:53:24.924Z,54.20
2023-03-24T00:55:52.495Z,54.20
2023-03-24T00:58:19.888Z,54.20
2023-03-24T01:00:48.351Z,54.00
2023-03-24T01:03:16.640Z,54.10
2023-03-24T01:05:45.981Z,54.00
2023-03-24T01:08:13.204Z,54.20
2023-03-24T01:10:52.239Z,54.30
2023-03-24T01:13:20.846Z,54.30
2023-03-24T01:15:50.096Z,54.20
2023-03-24T01:18:18.079Z,54.40
2023-03-24T01:20:48.190Z,54.40
2023-03-24T01:23:17.124Z,54.50
2023-03-24T01:25:44.556Z,54.60
2023-03-24T01:28:12.204Z,55.20
2023-03-24T01:30:40.165Z,54.30
2023-03-24T01:33:07.862Z,54.50
2023-03-24T01:35:35.491Z,54.70
2023-03-24T01:38:07.947Z,54.50
2023-03-24T01:40:43.084Z,54.70
2023-03-24T01:43:17.782Z,54.70
2023-03-24T01:46:06.217Z,54.40
2023-03-24T01:51:26.644Z,54.40
2023-03-24T01:54:03.073Z,54.20
2023-03-24T01:56:34.332Z,54.60
2023-03-24T01:59:09.640Z,54.70
2023-03-24T02:01:39.339Z,54.60
2023-03-24T02:04:08.512Z,54.30
2023-03-24T02:06:38.066Z,54.10
2023-03-24T02:09:08.387Z,54.30
2023-03-24T02:11:37.701Z,54.40
2023-03-24T02:14:08.443Z,54.50
2023-03-24T02:17:06.325Z,54.10
2023-03-24T02:20:04.903Z,54.50
2023-03-24T02:23:17.349Z,54.50
2023-03-24T02:26:33.833Z,54.40
2023-03-24T02:29:26.151Z,54.30
2023-03-24T02:32:27.137Z,54.50
2023-03-24T02:35:29.040Z,54.60
2023-03-24T02:38:18.589Z,54.50
2023-03-24T02:40:52.979Z,54.60
2023-03-24T02:43:37.787Z,54.70
2023-03-24T02:46:15.365Z,54.80
2023-03-24T02:48:57.782Z,54.60
2023-03-24T02:51:30.749Z,54.50
2023-03-24T02:54:07.806Z,54.60
2023-03-24T02:56:39.279Z,54.60
2023-03-24T02:59:09.175Z,54.80
2023-03-24T03:01:42.022Z,55.20
2023-03-24T03:04:11.338Z,55.00
2023-03-24T03:06:40.928Z,54.70
2023-03-24T03:09:11.959Z,54.60
2023-03-24T03:11:43.174Z,54.90
2023-03-24T03:14:13.356Z,55.10
2023-03-24T03:16:46.491Z,55.00
2023-03-24T03:19:18.195Z,55.20
2023-03-24T03:21:47.752Z,55.30
2023-03-24T03:24:18.143Z,55.10
2023-03-24T03:26:48.318Z,55.10
2023-03-24T03:29:19.808Z,55.50
2023-03-24T03:31:51.060Z,55.40
2023-03-24T03:34:25.005Z,55.70
2023-03-24T03:36:57.661Z,55.90
2023-03-24T03:39:29.757Z,56.10
2023-03-24T03:41:58.635Z,55.70
2023-03-24T03:44:25.647Z,55.90
2023-03-24T03:46:53.048Z,56.10
2023-03-24T03:49:19.991Z,56.30
2023-03-24T03:51:46.948Z,55.90
2023-03-24T03:54:16.185Z,56.10
2023-03-24T03:56:43.333Z,55.90
2023-03-24T03:59:24.907Z,56.30
2023-03-24T04:01:52.153Z,56.60
2023-03-24T04:04:37.586Z,56.60
2023-03-24T04:07:13.446Z,56.90
2023-03-24T04:09:52.631Z,56.70
2023-03-24T04:12:44.555Z,56.40
2023-03-24T04:15:36.344Z,56.40
2023-03-24T04:18:30.302Z,56.80
2023-03-24T04:21:11.069Z,56.40
2023-03-24T04:23:46.128Z,56.40
2023-03-24T04:26:22.848Z,56.20
2023-03-24T04:29:14.227Z,56.20
2023-03-24T04:31:48.286Z,56.90
2023-03-24T04:34:21.441Z,56.80
2023-03-24T04:36:51.748Z,57.40
2023-03-24T04:39:22.465Z,57.00
2023-03-24T04:41:49.532Z,56.80
2023-03-24T04:44:18.127Z,56.60
2023-03-24T04:46:45.911Z,57.40
2023-03-24T04:49:12.798Z,57.40
2023-03-24T04:51:40.372Z,57.70
2023-03-24T04:54:07.521Z,57.50
2023-03-24T04:56:41.086Z,57.40
2023-03-24T04:59:11.628Z,57.60
2023-03-24T05:01:40.735Z,57.20
2023-03-24T05:04:09.796Z,57.40
2023-03-24T05:06:37.110Z,57.50
2023-03-24T05:09:06.801Z,57.40
2023-03-24T05:11:36.166Z,57.80
2023-03-24T05:14:05.125Z,57.60
2023-03-24T05:17:14.716Z,57.40
2023-03-24T05:19:44.224Z,56.60
2023-03-24T05:22:11.529Z,57.00
2023-03-24T05:24:38.893Z,56.90
2023-03-24T05:27:06.203Z,57.10
2023-03-24T05:29:34.550Z,56.80
2023-03-24T05:32:03.414Z,56.70
2023-03-24T05:34:33.734Z,57.10
2023-03-24T05:37:02.662Z,56.60
2023-03-24T05:39:29.973Z,56.60
2023-03-24T05:41:57.518Z,56.70
2023-03-24T05:44:27.982Z,56.20
2023-03-24T05:46:55.602Z,56.40
2023-03-24T05:49:25.569Z,56.50
2023-03-24T05:51:54.285Z,56.80
2023-03-24T05:54:26.373Z,56.50
2023-03-24T05:56:56.003Z,56.60
2023-03-24T05:59:23.501Z,57.50
2023-03-24T06:01:50.693Z,57.40
2023-03-24T06:04:17.712Z,57.20
2023-03-24T06:06:46.200Z,57.20
2023-03-24T06:30:46.793Z,57.20
2023-03-24T06:33:13.912Z,57.70
2023-03-24T06:35:40.917Z,57.90
2023-03-24T06:38:08.129Z,57.50
2023-03-24T06:40:35.570Z,58.00
2023-03-24T06:43:02.526Z,58.50
2023-03-24T06:45:31.189Z,58.00
2023-03-24T06:47:59.437Z,57.60
2023-03-24T06:50:26.596Z,57.50
2023-03-24T06:52:53.611Z,57.60
2023-03-24T06:55:20.492Z,57.70
2023-03-24T06:57:47.235Z,57.30
2023-03-24T07:00:14.281Z,57.60
2023-03-24T07:02:41.225Z,57.20
2023-03-24T07:05:10.003Z,57.70
2023-03-24T07:10:07.702Z,58.40
2023-03-24T07:12:35.277Z,57.50
2023-03-24T07:15:02.181Z,57.30
2023-03-24T07:17:29.037Z,57.90
2023-03-24T07:19:55.900Z,57.70
2023-03-24T07:22:24.026Z,58.00
2023-03-24T07:24:53.627Z,57.80
2023-03-24T07:27:21.743Z,57.50
2023-03-24T07:29:49.145Z,58.00
2023-03-24T07:32:16.031Z,57.90
2023-03-24T07:34:48.540Z,58.00
2023-03-24T07:37:18.237Z,58.40
2023-03-24T07:39:46.548Z,58.00
2023-03-24T07:42:35.466Z,57.80
2023-03-24T07:45:06.030Z,58.00
2023-03-24T07:47:51.430Z,58.20
2023-03-24T07:50:23.714Z,58.50
2023-03-24T07:52:57.980Z,58.00
2023-03-24T07:55:27.772Z,58.40
2023-03-24T07:57:57.338Z,57.70
2023-03-24T08:00:27.461Z,58.50
2023-03-24T08:02:58.010Z,57.70
2023-03-24T08:08:16.998Z,58.70
2023-03-24T08:10:45.668Z,58.10
2023-03-24T08:13:12.593Z,58.00
2023-03-24T08:15:45.206Z,58.20
2023-03-24T08:18:12.437Z,58.00
2023-03-24T08:20:42.302Z,58.50
2023-03-24T08:23:17.727Z,58.30
2023-03-24T08:26:00.558Z,58.10
2023-03-24T08:28:52.448Z,58.50
2023-03-24T08:46:36.338Z,57.70
2023-03-24T08:49:06.106Z,57.20
2023-03-24T08:51:33.186Z,57.70
2023-03-24T08:54:00.015Z,57.60
2023-03-24T08:56:29.947Z,57.40
2023-03-24T08:58:56.816Z,57.40
2023-03-24T09:01:24.238Z,57.70
2023-03-24T09:03:52.371Z,57.70
2023-03-24T09:06:41.817Z,57.20
2023-03-24T09:28:38.072Z,53.70
2023-03-24T09:31:06.770Z,54.10
2023-03-24T09:33:45.887Z,54.20
2023-03-24T09:36:28.617Z,53.90
2023-03-24T09:39:17.184Z,53.60
2023-03-24T09:41:55.265Z,53.90
2023-03-24T09:44:29.731Z,54.10
2023-03-24T09:47:09.120Z,54.30
2023-03-24T09:49:56.413Z,54.10
2023-03-24T09:52:39.890Z,53.60
2023-03-24T09:55:17.292Z,54.00
2023-03-24T09:58:05.638Z,54.00
2023-03-24T10:01:00.859Z,53.70
2023-03-24T10:03:30.386Z,53.80
2023-03-24T10:06:12.000Z,53.70
2023-03-24T10:08:46.551Z,53.70
2023-03-24T10:11:29.144Z,53.80
2023-03-24T10:14:10.592Z,52.60
2023-03-24T10:16:45.322Z,51.80
2023-03-24T10:19:21.471Z,50.60
2023-03-24T10:21:57.077Z,50.30
2023-03-24T10:24:30.034Z,51.20
2023-03-24T10:27:05.895Z,51.30
2023-03-24T10:29:38.667Z,51.30
2023-03-24T10:32:23.237Z,51.10
2023-03-24T10:35:03.124Z,50.10
2023-03-24T10:37:31.000Z,51.40
2023-03-24T10:40:17.541Z,49.60
2023-03-24T10:42:45.530Z,49.70
2023-03-24T10:45:14.743Z,50.20
2023-03-24T10:47:43.792Z,49.30
2023-03-24T10:50:15.217Z,51.00
2023-03-24T10:52:44.325Z,50.60
2023-03-24T10:55:16.324Z,50.10
2023-03-24T10:57:44.821Z,50.20
2023-03-24T11:00:20.529Z,50.00
2023-03-24T11:02:57.590Z,49.00
2023-03-24T11:05:29.041Z,50.20
2023-03-24T11:08:00.605Z,49.50
2023-03-24T11:10:27.726Z,48.30
2023-03-24T11:13:01.999Z,48.60
2023-03-24T11:15:30.842Z,48.70
2023-03-24T11:18:00.726Z,48.70
2023-03-24T11:20:32.357Z,48.40
2023-03-24T11:23:01.736Z,47.90
2023-03-24T11:25:32.476Z,47.70
2023-03-24T11:28:02.742Z,47.80
2023-03-24T11:30:34.629Z,46.70
2023-03-24T11:33:03.692Z,47.80
2023-03-24T11:35:40.914Z,48.50
2023-03-24T11:38:08.878Z,49.00
2023-03-24T11:40:36.264Z,48.80
2023-03-24T11:43:04.817Z,49.00
2023-03-24T11:45:37.776Z,48.60
2023-03-24T11:51:28.181Z,47.90
2023-03-24T11:57:03.237Z,48.30
2023-03-24T11:59:37.365Z,48.00
2023-03-24T12:02:17.834Z,46.70
2023-03-24T12:05:09.765Z,46.40
2023-03-24T12:08:00.000Z,46.70
2023-03-24T12:10:55.434Z,47.40
2023-03-24T12:13:33.272Z,47.30
2023-03-24T12:16:19.154Z,47.70
2023-03-24T12:19:08.506Z,47.70
2023-03-24T12:21:50.450Z,48.60
2023-03-24T12:24:28.510Z,47.30
2023-03-24T12:26:58.816Z,48.00
2023-03-24T12:29:45.216Z,48.80
2023-03-24T12:32:36.389Z,48.30
2023-03-24T12:35:28.803Z,48.00
2023-03-24T12:38:08.794Z,47.80
2023-03-24T12:40:57.048Z,48.30
2023-03-24T12:43:34.537Z,47.30
2023-03-24T12:46:09.710Z,46.60
2023-03-24T12:48:51.487Z,47.30
2023-03-24T12:51:31.031Z,48.40
2023-03-24T12:54:12.170Z,45.40
2023-03-24T12:56:45.443Z,47.40
2023-03-24T12:59:17.425Z,47.70
2023-03-24T13:01:46.748Z,45.60
2023-03-24T13:04:18.811Z,46.00
2023-03-24T13:06:50.241Z,46.10
2023-03-24T13:09:30.521Z,46.70
2023-03-24T13:12:07.821Z,45.70
2023-03-24T13:14:48.278Z,45.60
2023-03-24T13:17:23.468Z,46.40
2023-03-24T13:19:54.827Z,46.30
2023-03-24T13:22:31.839Z,46.60
2023-03-24T13:25:03.115Z,45.40
2023-03-24T13:27:36.463Z,46.20
2023-03-24T13:30:29.529Z,45.70
2023-03-24T13:33:02.620Z,46.00
2023-03-24T13:35:55.494Z,46.20
2023-03-24T13:38:35.786Z,45.20
2023-03-24T13:41:06.660Z,45.30
2023-03-24T13:43:38.502Z,46.00
2023-03-24T13:46:11.660Z,45.30
2023-03-24T13:48:39.998Z,45.40
2023-03-24T13:51:16.661Z,45.90
2023-03-24T13:53:45.920Z,46.70
2023-03-24T13:56:21.960Z,45.40
2023-03-24T13:59:06.637Z,45.60
2023-03-24T14:01:36.737Z,45.50
2023-03-24T14:04:27.204Z,43.60
2023-03-24T14:06:55.080Z,44.90
2023-03-24T14:09:24.068Z,44.20
2023-03-24T14:12:19.995Z,43.10
2023-03-24T14:15:15.031Z,44.70
2023-03-24T14:17:44.749Z,44.00
2023-03-24T14:20:23.761Z,43.30
2023-03-24T14:22:50.995Z,44.50
2023-03-24T14:25:23.842Z,45.40
2023-03-24T14:27:52.032Z,43.40
2023-03-24T14:30:25.889Z,44.50
2023-03-24T14:32:55.393Z,44.90
2023-03-24T14:35:36.393Z,43.30
2023-03-24T14:38:05.334Z,44.60
2023-03-24T14:40:36.472Z,44.00
2023-03-24T14:43:15.370Z,44.50
2023-03-24T14:46:01.230Z,46.70
2023-03-24T14:48:37.578Z,45.80
2023-03-24T14:51:15.280Z,44.20
2023-03-24T14:53:42.094Z,45.90
2023-03-24T14:56:14.939Z,45.90
2023-03-24T14:58:43.958Z,45.00
2023-03-24T15:01:13.009Z,43.80
2023-03-24T15:03:44.847Z,45.60
2023-03-24T15:06:16.962Z,44.50
2023-03-24T15:08:50.298Z,44.90
2023-03-24T15:11:20.530Z,42.70
2023-03-24T15:13:50.668Z,44.90
2023-03-24T15:16:22.401Z,43.90
2023-03-24T15:19:00.644Z,44.90
2023-03-24T15:21:32.570Z,42.80
2023-03-24T15:23:59.953Z,43.60
2023-03-24T15:26:29.608Z,44.60
2023-03-24T15:28:58.051Z,45.00
2023-03-24T15:31:27.141Z,44.10
2023-03-24T15:33:53.799Z,43.80
2023-03-24T15:36:22.662Z,43.20
2023-03-24T15:38:51.159Z,43.30
2023-03-24T15:41:20.444Z,43.80
2023-03-24T15:43:50.290Z,44.50
2023-03-24T15:46:24.147Z,44.00
2023-03-24T15:48:53.212Z,43.70
2023-03-24T15:51:20.245Z,44.00
2023-03-24T15:53:54.773Z,43.90
2023-03-24T15:56:26.112Z,44.30
2023-03-24T15:58:55.936Z,43.50
2023-03-24T16:01:26.450Z,43.00
2023-03-24T16:03:55.583Z,43.50
2023-03-24T16:06:27.389Z,42.70
2023-03-24T16:08:54.226Z,43.00
2023-03-24T16:11:24.383Z,42.60
2023-03-24T16:13:54.303Z,43.90
2023-03-24T16:16:28.058Z,44.10
2023-03-24T16:18:57.089Z,43.20
2023-03-24T16:22:00.550Z,44.00
2023-03-24T16:27:16.214Z,44.10
2023-03-24T16:29:43.172Z,44.90
2023-03-24T16:32:10.524Z,44.60
2023-03-24T16:34:44.374Z,44.80
2023-03-24T16:37:11.364Z,44.30
2023-03-24T16:39:38.361Z,44.80
2023-03-24T16:42:05.328Z,44.40
2023-03-24T16:44:32.083Z,44.30
2023-03-24T16:46:59.507Z,43.70
2023-03-24T16:49:26.411Z,44.40
2023-03-24T16:51:54.795Z,44.50
2023-03-24T16:54:21.561Z,44.20
2023-03-24T16:56:48.390Z,45.30
2023-03-24T16:59:15.141Z,45.30
2023-03-24T17:01:43.287Z,44.70
2023-03-24T17:04:15.952Z,44.50
2023-03-24T17:06:44.491Z,45.40
2023-03-24T17:09:12.782Z,44.80
2023-03-24T17:11:41.456Z,45.40
2023-03-24T17:14:08.634Z,45.60
2023-03-24T17:16:37.194Z,45.40
2023-03-24T17:19:03.999Z,45.20
2023-03-24T17:21:31.976Z,45.30
2023-03-24T17:23:58.726Z,44.80
2023-03-24T17:26:26.807Z,45.00
2023-03-24T17:28:53.497Z,43.70
2023-03-24T17:31:20.228Z,44.80
2023-03-24T17:33:46.860Z,44.50
2023-03-24T17:36:14.910Z,44.80
2023-03-24T17:38:41.862Z,44.80
2023-03-24T17:41:08.527Z,45.70
2023-03-24T17:43:36.734Z,45.30
2023-03-24T17:46:03.612Z,45.20
2023-03-24T17:48:30.618Z,45.60
2023-03-24T17:50:57.574Z,45.60
2023-03-24T17:53:24.966Z,45.80
2023-03-24T17:55:51.661Z,46.20
2023-03-24T17:58:18.490Z,45.80
2023-03-24T18:00:46.643Z,46.40
2023-03-24T18:03:13.775Z,45.90
2023-03-24T18:05:40.557Z,45.00
2023-03-24T18:08:07.641Z,44.90
2023-03-24T18:10:35.310Z,44.80
2023-03-24T18:13:02.043Z,44.30
2023-03-24T18:15:28.768Z,43.30
2023-03-24T18:17:57.533Z,43.90
2023-03-24T18:20:24.732Z,44.80
2023-03-24T18:22:51.683Z,44.50
2023-03-24T18:25:18.425Z,45.70
2023-03-24T18:27:45.120Z,45.70
2023-03-24T18:30:13.614Z,46.00
2023-03-24T18:32:40.411Z,45.70
2023-03-24T18:35:10.525Z,45.70
2023-03-24T18:37:37.745Z,44.70
2023-03-24T18:40:05.782Z,45.80
2023-03-24T18:42:32.514Z,44.80
2023-03-24T18:44:59.193Z,45.40
2023-03-24T18:47:25.995Z,45.20
2023-03-24T18:49:52.673Z,46.30
2023-03-24T18:52:20.908Z,46.80
2023-03-24T18:54:47.721Z,47.80
2023-03-24T18:57:14.822Z,48.90
2023-03-24T18:59:41.533Z,49.10
2023-03-24T19:02:10.646Z,49.10
2023-03-24T19:04:37.465Z,49.30
2023-03-24T19:07:04.134Z,49.60
2023-03-24T19:09:32.440Z,49.70
2023-03-24T19:11:59.149Z,50.00
2023-03-24T19:14:25.980Z,50.20
2023-03-24T19:16:52.705Z,49.90
2023-03-24T19:19:19.485Z,50.50
2023-03-24T19:21:49.553Z,49.60
2023-03-24T19:24:16.311Z,50.20
2023-03-24T19:26:44.304Z,50.10
2023-03-24T19:29:10.953Z,50.30
2023-03-24T19:31:37.799Z,50.00
2023-03-24T19:34:04.537Z,50.30
2023-03-24T19:36:31.408Z,50.40
2023-03-24T19:38:58.111Z,50.30
2023-03-24T19:41:24.986Z,50.30
2023-03-24T19:43:53.689Z,50.50
2023-03-24T19:46:20.422Z,50.40
2023-03-24T19:48:47.482Z,50.50
2023-03-24T19:51:14.412Z,50.70
2023-03-24T19:53:41.179Z,50.60
2023-03-24T19:56:08.372Z,50.70
2023-03-24T19:58:35.405Z,50.50
2023-03-24T20:01:03.943Z,50.70
2023-03-24T20:03:31.035Z,50.80
2023-03-24T20:06:04.015Z,50.80
2023-03-24T20:08:31.065Z,50.80
2023-03-24T20:10:57.788Z,51.00
2023-03-24T20:13:24.574Z,51.00
2023-03-24T20:15:51.440Z,51.00
2023-03-24T20:18:19.761Z,51.10
2023-03-24T20:20:46.545Z,51.10
2023-03-24T20:23:13.232Z,51.10
2023-03-24T20:25:41.689Z,51.10
2023-03-24T20:28:08.522Z,51.20
2023-03-24T20:30:35.251Z,51.20
2023-03-24T20:33:01.917Z,51.30
2023-03-24T20:35:29.968Z,51.20
2023-03-24T20:37:56.748Z,51.20
2023-03-24T20:40:23.505Z,51.30
2023-03-24T20:42:50.538Z,51.40
2023-03-24T20:45:17.287Z,51.50
2023-03-24T20:47:44.057Z,51.60
2023-03-24T20:50:11.194Z,51.70
2023-03-24T20:52:39.213Z,51.60
2023-03-24T20:55:06.632Z,51.60
2023-03-24T20:57:33.703Z,51.70
2023-03-24T21:00:00.616Z,51.70
2023-03-24T21:02:27.594Z,51.90
2023-03-24T21:04:54.266Z,52.00
2023-03-24T21:07:20.905Z,51.80
2023-03-24T21:09:48.938Z,51.90
2023-03-24T21:12:15.612Z,51.80
2023-03-24T21:14:42.319Z,51.90
2023-03-24T21:17:09.115Z,51.90
2023-03-24T21:19:36.164Z,52.00
2023-03-24T21:22:03.225Z,52.00
2023-03-24T21:24:30.374Z,52.00
2023-03-24T21:26:58.976Z,52.00
2023-03-24T21:29:25.915Z,52.10
2023-03-24T21:31:52.980Z,52.00
2023-03-24T21:34:20.686Z,52.10
2023-03-24T21:36:47.987Z,52.00
2023-03-24T21:39:15.237Z,52.30
2023-03-24T21:41:42.528Z,52.20
2023-03-24T21:44:11.070Z,52.50
2023-03-24T21:46:37.872Z,52.30
2023-03-24T21:49:04.933Z,52.50
2023-03-24T21:51:34.275Z,52.40
2023-03-24T21:54:01.634Z,52.20
2023-03-24T21:56:29.122Z,52.50
2023-03-24T21:58:56.333Z,52.40
2023-03-24T22:01:25.172Z,52.50
2023-03-24T22:07:15.154Z,52.40
2023-03-24T22:09:42.261Z,52.70
2023-03-24T22:12:09.615Z,52.70
2023-03-24T22:14:36.585Z,52.50
2023-03-24T22:17:04.886Z,52.50
2023-03-24T22:19:31.981Z,52.50
2023-03-24T22:21:59.221Z,52.50
2023-03-24T22:24:26.420Z,52.60
2023-03-24T22:26:53.828Z,52.40
2023-03-24T22:29:21.165Z,52.50
2023-03-24T22:31:48.324Z,52.40
2023-03-24T22:34:16.626Z,52.50
2023-03-24T22:36:44.283Z,52.50
2023-03-24T22:39:11.305Z,52.40
2023-03-24T22:41:38.248Z,52.30
2023-03-24T22:44:05.587Z,52.50
2023-03-24T22:46:32.679Z,52.30
2023-03-24T22:49:00.169Z,52.30
2023-03-24T22:51:28.829Z,52.50
2023-03-24T22:53:56.336Z,52.30
2023-03-24T22:56:23.829Z,52.40
2023-03-24T22:58:50.932Z,52.40
2023-03-24T23:01:17.684Z,52.30
2023-03-24T23:03:44.689Z,52.50
2023-03-24T23:06:11.545Z,52.30
2023-03-24T23:08:39.648Z,52.40
2023-03-24T23:11:07.520Z,52.50
2023-03-24T23:13:34.275Z,52.40
2023-03-24T23:16:01.068Z,52.40
2023-03-24T23:18:28.761Z,52.30
2023-03-24T23:21:02.240Z,52.50
2023-03-24T23:23:29.034Z,52.30
2023-03-24T23:25:57.080Z,52.30
2023-03-24T23:28:23.834Z,52.40
2023-03-24T23:30:50.528Z,52.40
2023-03-24T23:33:17.474Z,52.30
2023-03-24T23:35:44.263Z,52.20
2023-03-24T23:38:10.936Z,52.20
2023-03-24T23:40:37.759Z,52.30
2023-03-24T23:43:05.830Z,52.30
2023-03-24T23:45:32.574Z,52.30
2023-03-24T23:47:59.504Z,52.40
2023-03-24T23:50:26.336Z,52.20
2023-03-24T23:52:53.066Z,52.20
2023-03-24T23:55:19.763Z,52.20
2023-03-24T23:57:47.034Z,52.80
